West Brevoort - southern half: Past 24 Hour Conditions

 

Baker Lake Airport

11:00 PM CST 26 November 2014
This table is a summary of hourly weather conditions for the past 24 hours.
Date / Time
(CST)
Wind(knots) Conditions Visibility(km) Pressure(kPa) Air tempC) Relative humidity(%) Dew pointC) Wind Chill
26 November 2014
23:00 NW 15 Mainly Clear 24 101.2 -29 71 -33 -44
22:00 WNW 11 gust 18 Mainly Clear 24 101.2 -29 70 -33 -42
21:00 NW 25 Drifting Snow 16 101.1 -28 73 -32 -46
20:00 NW 23 Drifting Snow 24 101.1 -28 73 -31 -45
19:00 NW 20 Drifting Snow 24 101.1 -27 73 -31 -43
18:00 NW 19 Drifting Snow 24 101.0 -26 74 -29 -41
17:00 NW 20 Light Snow 16 101.0 -24 75 -27 -39
16:00 WNW 16 Light Snow 16 100.9 -23 75 -26 -36
15:00 WNW 20 Light Snow 10 100.8 -22 75 -25 -36
14:00 W 16 Light Snow 10 100.8 -22 75 -25 -35
13:00 W 19 Light Snow 8 100.9 -22 75 -25 -36
12:00 W 13 Light Snow 6 101.0 -22 75 -25 -34
11:00 W 16 gust 21 Light Snow 6 101.0 -22 74 -26 -35
10:00 W 18 gust 24 Drifting Snow 32 101.1 -22 72 -26 -36
9:00 W 21 Drifting Snow 32 101.1 -22 71 -25 -36
8:00 WNW 14 gust 23 Drifting Snow 24 101.2 -21 71 -25 -33
7:00 W 24 gust 32 Drifting Snow 24 101.2 -22 71 -25 -37
6:00 W 25 gust 32 Drifting Snow 24 101.3 -22 70 -26 -38
5:00 W 25 Drifting Snow 24 101.4 -23 70 -27 -39
4:00 W 23 gust 29 Drifting Snow 24 101.5 -24 70 -28 -40
3:00 W 20 Drifting Snow 24 101.6 -24 70 -28 -38
2:00 W 17 Mostly Cloudy 24 101.7 -24 72 -28 -38
1:00 W 9 gust 21 Mostly Cloudy 24 101.7 -23 69 -27 -33
0:00 NW 6 Mainly Clear 24 101.7 -24 70 -28 -33
25 November 2014
23:00 WNW 17 Drifting Snow 24 101.7 -25 70 -29 -40
 
Map of Arctic - Eastern Arctic marine weather areas Baker Lake Airport Chesterfield Inlet Airport Coral Harbour Airport Gjoa Haven Airport Kugaaruk Airport Rankin Inlet Airport Shepherd Bay Airport Whale Cove Airport Arctic Bay Brevoort Island Qikiqtarjuaq Airport Cape Dorset Airport Cape Dyer Cape Hooper Clyde Airport Grise Fiord Airport Hall Beach Airport Igloolik Airport Iqaluit Airport Longstaff Bluff Pangnirtung Airport Pond Inlet Airport Repulse Bay Airport Resolute Airport Resolution Island Rowley Island Airport Taloyoak Airport Wager Bay Akulivik Airport Ivujivik Airport Puvirnituq Airport Kangiqsujuaq Airport Kangirsuk Airport Quaqtaq Airport Tasiujaq Airport Cape Kakkiviak Cape Kiglapait Nain Airport Saglek Cape Mercy Kimmirut Airport Aupaluk Airport Salluit Airport Kangiqsualujjuaq Airport Fort Ross
Legend: buoyBuoy land stationLand Station